Terminal Aerodrome Forecast
Issued by NWS

Home | Current Version | Previous Version | Text Only | Print | Product List | Glossary Off
Versions: 1 2 3 4 5 6 7 8 9 10 11 12 13 14 15 16

000
FTUS43 KGRB 022054 AAA
TAFCWA
TAF AMD
KCWA 022054Z 0221/0318 32015G30KT 3SM TSRA BKN030CB BKN070
     FM022200 33012G18KT P6SM SCT035
     FM030200 32006KT P6SM SKC=

USA.gov is the U.S. government's official web portal to all federal, state and local government web resources and services.